sensor_id;sensor_type;location;lat;lon;timestamp;P1;durP1;ratioP1;P2;durP2;ratioP2
42104;SDS011;70664;51.472;5.712;2024-01-30T00:02:13;24.35;;;10.35;;
42104;SDS011;70664;51.472;5.712;2024-01-30T00:04:39;21.25;;;9.55;;
42104;SDS011;70664;51.472;5.712;2024-01-30T00:07:05;22.58;;;10.48;;
42104;SDS011;70664;51.472;5.712;2024-01-30T00:09:30;21.45;;;9.27;;
42104;SDS011;70664;51.472;5.712;2024-01-30T00:11:56;18.95;;;10.02;;
42104;SDS011;70664;51.472;5.712;2024-01-30T00:14:22;19.70;;;9.63;;
42104;SDS011;70664;51.472;5.712;2024-01-30T00:16:48;17.88;;;9.40;;
42104;SDS011;70664;51.472;5.712;2024-01-30T00:19:14;19.33;;;9.23;;
42104;SDS011;70664;51.472;5.712;2024-01-30T00:21:40;18.65;;;9.13;;
42104;SDS011;70664;51.472;5.712;2024-01-30T00:24:06;18.05;;;9.20;;
42104;SDS011;70664;51.472;5.712;2024-01-30T00:26:32;19.25;;;9.25;;
42104;SDS011;70664;51.472;5.712;2024-01-30T00:28:57;18.63;;;9.25;;
42104;SDS011;70664;51.472;5.712;2024-01-30T00:31:23;19.33;;;9.40;;
42104;SDS011;70664;51.472;5.712;2024-01-30T00:33:49;15.90;;;8.70;;
42104;SDS011;70664;51.472;5.712;2024-01-30T00:36:15;20.98;;;9.40;;
42104;SDS011;70664;51.472;5.712;2024-01-30T00:38:41;18.25;;;9.32;;
42104;SDS011;70664;51.472;5.712;2024-01-30T00:41:10;17.63;;;8.38;;
42104;SDS011;70664;51.472;5.712;2024-01-30T00:43:36;17.30;;;9.10;;
42104;SDS011;70664;51.472;5.712;2024-01-30T00:46:02;18.00;;;9.27;;
42104;SDS011;70664;51.472;5.712;2024-01-30T00:48:28;19.98;;;9.07;;
42104;SDS011;70664;51.472;5.712;2024-01-30T00:50:54;19.60;;;8.85;;
42104;SDS011;70664;51.472;5.712;2024-01-30T00:53:20;17.98;;;8.57;;
42104;SDS011;70664;51.472;5.712;2024-01-30T00:55:46;20.38;;;8.43;;
42104;SDS011;70664;51.472;5.712;2024-01-30T00:58:12;17.42;;;8.52;;
42104;SDS011;70664;51.472;5.712;2024-01-30T01:00:38;20.42;;;9.18;;
42104;SDS011;70664;51.472;5.712;2024-01-30T01:03:04;15.75;;;8.25;;
42104;SDS011;70664;51.472;5.712;2024-01-30T01:05:30;15.48;;;8.48;;
42104;SDS011;70664;51.472;5.712;2024-01-30T01:07:56;16.02;;;8.45;;
42104;SDS011;70664;51.472;5.712;2024-01-30T01:10:22;19.45;;;9.07;;
42104;SDS011;70664;51.472;5.712;2024-01-30T01:12:48;18.67;;;8.38;;
42104;SDS011;70664;51.472;5.712;2024-01-30T01:15:14;16.73;;;8.68;;
42104;SDS011;70664;51.472;5.712;2024-01-30T01:17:40;16.60;;;8.52;;
42104;SDS011;70664;51.472;5.712;2024-01-30T01:20:06;16.88;;;8.75;;
42104;SDS011;70664;51.472;5.712;2024-01-30T01:22:33;16.30;;;8.40;;
42104;SDS011;70664;51.472;5.712;2024-01-30T01:25:00;16.88;;;8.35;;
42104;SDS011;70664;51.472;5.712;2024-01-30T01:27:26;14.65;;;7.78;;
42104;SDS011;70664;51.472;5.712;2024-01-30T01:29:52;16.20;;;8.30;;
42104;SDS011;70664;51.472;5.712;2024-01-30T01:32:18;16.80;;;8.52;;
42104;SDS011;70664;51.472;5.712;2024-01-30T01:34:44;17.13;;;8.70;;
42104;SDS011;70664;51.472;5.712;2024-01-30T01:37:10;15.88;;;8.45;;
42104;SDS011;70664;51.472;5.712;2024-01-30T01:39:36;15.18;;;7.90;;
42104;SDS011;70664;51.472;5.712;2024-01-30T01:42:02;18.52;;;8.23;;
42104;SDS011;70664;51.472;5.712;2024-01-30T01:44:28;15.85;;;8.18;;
42104;SDS011;70664;51.472;5.712;2024-01-30T01:46:54;16.08;;;7.93;;
42104;SDS011;70664;51.472;5.712;2024-01-30T01:49:22;14.40;;;7.50;;
42104;SDS011;70664;51.472;5.712;2024-01-30T01:51:50;14.88;;;7.40;;
42104;SDS011;70664;51.472;5.712;2024-01-30T01:54:18;15.23;;;7.18;;
42104;SDS011;70664;51.472;5.712;2024-01-30T01:56:45;14.80;;;7.40;;
42104;SDS011;70664;51.472;5.712;2024-01-30T01:59:11;14.45;;;7.00;;
42104;SDS011;70664;51.472;5.712;2024-01-30T02:01:37;13.52;;;7.55;;
42104;SDS011;70664;51.472;5.712;2024-01-30T02:04:03;14.55;;;7.63;;
42104;SDS011;70664;51.472;5.712;2024-01-30T02:06:30;15.18;;;7.45;;
42104;SDS011;70664;51.472;5.712;2024-01-30T02:08:57;16.85;;;7.95;;
42104;SDS011;70664;51.472;5.712;2024-01-30T02:11:22;16.35;;;7.38;;
42104;SDS011;70664;51.472;5.712;2024-01-30T02:13:49;13.80;;;7.65;;
42104;SDS011;70664;51.472;5.712;2024-01-30T02:16:15;12.35;;;6.80;;
42104;SDS011;70664;51.472;5.712;2024-01-30T02:18:44;15.57;;;7.55;;
42104;SDS011;70664;51.472;5.712;2024-01-30T02:21:12;13.63;;;6.90;;
42104;SDS011;70664;51.472;5.712;2024-01-30T02:23:42;15.07;;;7.82;;
42104;SDS011;70664;51.472;5.712;2024-01-30T02:26:11;14.60;;;7.25;;
42104;SDS011;70664;51.472;5.712;2024-01-30T02:28:37;16.70;;;7.47;;
42104;SDS011;70664;51.472;5.712;2024-01-30T02:31:03;16.33;;;7.97;;
42104;SDS011;70664;51.472;5.712;2024-01-30T02:33:30;13.90;;;7.03;;
42104;SDS011;70664;51.472;5.712;2024-01-30T02:35:56;13.75;;;7.20;;
42104;SDS011;70664;51.472;5.712;2024-01-30T02:38:21;12.35;;;7.20;;
42104;SDS011;70664;51.472;5.712;2024-01-30T02:40:48;12.88;;;6.57;;
42104;SDS011;70664;51.472;5.712;2024-01-30T02:43:15;13.23;;;7.07;;
42104;SDS011;70664;51.472;5.712;2024-01-30T02:45:41;13.57;;;7.30;;
42104;SDS011;70664;51.472;5.712;2024-01-30T02:48:07;12.80;;;6.75;;
42104;SDS011;70664;51.472;5.712;2024-01-30T02:50:33;12.15;;;6.40;;
42104;SDS011;70664;51.472;5.712;2024-01-30T02:52:59;14.07;;;7.40;;
42104;SDS011;70664;51.472;5.712;2024-01-30T02:55:25;11.32;;;6.63;;
42104;SDS011;70664;51.472;5.712;2024-01-30T02:57:51;13.45;;;6.32;;
42104;SDS011;70664;51.472;5.712;2024-01-30T03:00:16;13.50;;;6.88;;
42104;SDS011;70664;51.472;5.712;2024-01-30T03:02:44;12.98;;;7.30;;
42104;SDS011;70664;51.472;5.712;2024-01-30T03:05:10;11.05;;;6.65;;
42104;SDS011;70664;51.472;5.712;2024-01-30T03:07:36;10.65;;;6.47;;
42104;SDS011;70664;51.472;5.712;2024-01-30T03:10:02;12.27;;;6.45;;
42104;SDS011;70664;51.472;5.712;2024-01-30T03:12:29;12.15;;;7.05;;
42104;SDS011;70664;51.472;5.712;2024-01-30T03:14:55;12.65;;;6.40;;
42104;SDS011;70664;51.472;5.712;2024-01-30T03:17:21;12.50;;;6.53;;
42104;SDS011;70664;51.472;5.712;2024-01-30T03:19:46;10.90;;;6.38;;
42104;SDS011;70664;51.472;5.712;2024-01-30T03:22:12;12.25;;;7.00;;
42104;SDS011;70664;51.472;5.712;2024-01-30T03:24:38;11.80;;;6.53;;
42104;SDS011;70664;51.472;5.712;2024-01-30T03:27:04;9.40;;;6.07;;
42104;SDS011;70664;51.472;5.712;2024-01-30T03:29:29;12.55;;;6.88;;
42104;SDS011;70664;51.472;5.712;2024-01-30T03:31:55;10.52;;;5.95;;
42104;SDS011;70664;51.472;5.712;2024-01-30T03:34:21;10.25;;;6.28;;
42104;SDS011;70664;51.472;5.712;2024-01-30T03:36:47;11.93;;;6.70;;
42104;SDS011;70664;51.472;5.712;2024-01-30T03:39:12;10.43;;;6.25;;
42104;SDS011;70664;51.472;5.712;2024-01-30T03:41:38;14.10;;;6.63;;
42104;SDS011;70664;51.472;5.712;2024-01-30T03:44:09;12.18;;;6.05;;
42104;SDS011;70664;51.472;5.712;2024-01-30T03:46:35;10.25;;;6.00;;
42104;SDS011;70664;51.472;5.712;2024-01-30T03:49:01;11.32;;;5.90;;
42104;SDS011;70664;51.472;5.712;2024-01-30T03:51:27;10.30;;;5.95;;
42104;SDS011;70664;51.472;5.712;2024-01-30T03:53:52;9.98;;;5.90;;
42104;SDS011;70664;51.472;5.712;2024-01-30T03:56:18;10.98;;;6.13;;
42104;SDS011;70664;51.472;5.712;2024-01-30T03:58:44;11.95;;;6.20;;
42104;SDS011;70664;51.472;5.712;2024-01-30T04:01:16;9.02;;;5.72;;
42104;SDS011;70664;51.472;5.712;2024-01-30T04:03:42;11.15;;;6.15;;
42104;SDS011;70664;51.472;5.712;2024-01-30T04:06:08;12.10;;;6.25;;
42104;SDS011;70664;51.472;5.712;2024-01-30T04:08:35;9.93;;;5.82;;
42104;SDS011;70664;51.472;5.712;2024-01-30T04:11:05;9.23;;;5.68;;
42104;SDS011;70664;51.472;5.712;2024-01-30T04:13:31;10.55;;;5.93;;
42104;SDS011;70664;51.472;5.712;2024-01-30T04:16:01;9.68;;;5.70;;
42104;SDS011;70664;51.472;5.712;2024-01-30T04:18:28;9.95;;;6.05;;
42104;SDS011;70664;51.472;5.712;2024-01-30T04:20:54;12.45;;;6.05;;
42104;SDS011;70664;51.472;5.712;2024-01-30T04:23:20;10.15;;;6.07;;
42104;SDS011;70664;51.472;5.712;2024-01-30T04:25:46;10.55;;;5.82;;
42104;SDS011;70664;51.472;5.712;2024-01-30T04:28:12;9.95;;;5.88;;
42104;SDS011;70664;51.472;5.712;2024-01-30T04:30:38;9.15;;;5.95;;
42104;SDS011;70664;51.472;5.712;2024-01-30T04:33:04;10.70;;;5.78;;
42104;SDS011;70664;51.472;5.712;2024-01-30T04:35:30;9.32;;;5.60;;
42104;SDS011;70664;51.472;5.712;2024-01-30T04:37:56;8.32;;;5.50;;
42104;SDS011;70664;51.472;5.712;2024-01-30T04:40:21;10.68;;;5.85;;
42104;SDS011;70664;51.472;5.712;2024-01-30T04:42:47;9.35;;;5.35;;
42104;SDS011;70664;51.472;5.712;2024-01-30T04:45:13;9.43;;;5.30;;
42104;SDS011;70664;51.472;5.712;2024-01-30T04:47:39;9.02;;;5.43;;
42104;SDS011;70664;51.472;5.712;2024-01-30T04:50:08;8.80;;;5.32;;
42104;SDS011;70664;51.472;5.712;2024-01-30T04:52:34;9.00;;;5.50;;
42104;SDS011;70664;51.472;5.712;2024-01-30T04:55:00;8.85;;;5.20;;
42104;SDS011;70664;51.472;5.712;2024-01-30T04:57:26;10.55;;;5.60;;
42104;SDS011;70664;51.472;5.712;2024-01-30T04:59:52;9.20;;;5.18;;
42104;SDS011;70664;51.472;5.712;2024-01-30T05:02:18;9.27;;;5.60;;
42104;SDS011;70664;51.472;5.712;2024-01-30T05:04:44;12.48;;;5.80;;
42104;SDS011;70664;51.472;5.712;2024-01-30T05:07:10;9.38;;;5.60;;
42104;SDS011;70664;51.472;5.712;2024-01-30T05:09:35;9.50;;;5.05;;
42104;SDS011;70664;51.472;5.712;2024-01-30T05:12:01;8.20;;;5.30;;
42104;SDS011;70664;51.472;5.712;2024-01-30T05:14:28;8.50;;;5.18;;
42104;SDS011;70664;51.472;5.712;2024-01-30T05:16:53;9.15;;;5.50;;
42104;SDS011;70664;51.472;5.712;2024-01-30T05:19:19;8.27;;;5.10;;
42104;SDS011;70664;51.472;5.712;2024-01-30T05:21:46;9.75;;;5.50;;
42104;SDS011;70664;51.472;5.712;2024-01-30T05:24:12;9.85;;;5.30;;
42104;SDS011;70664;51.472;5.712;2024-01-30T05:26:38;9.88;;;5.43;;
42104;SDS011;70664;51.472;5.712;2024-01-30T05:29:04;9.77;;;5.43;;
42104;SDS011;70664;51.472;5.712;2024-01-30T05:31:31;8.80;;;5.38;;
42104;SDS011;70664;51.472;5.712;2024-01-30T05:33:57;7.95;;;5.32;;
42104;SDS011;70664;51.472;5.712;2024-01-30T05:36:22;8.57;;;5.10;;
42104;SDS011;70664;51.472;5.712;2024-01-30T05:38:48;10.10;;;5.75;;
42104;SDS011;70664;51.472;5.712;2024-01-30T05:41:14;9.15;;;5.03;;
42104;SDS011;70664;51.472;5.712;2024-01-30T05:43:40;8.02;;;5.05;;
42104;SDS011;70664;51.472;5.712;2024-01-30T05:46:08;9.45;;;5.35;;
42104;SDS011;70664;51.472;5.712;2024-01-30T05:48:34;8.43;;;4.85;;
42104;SDS011;70664;51.472;5.712;2024-01-30T05:51:00;9.45;;;5.35;;
42104;SDS011;70664;51.472;5.712;2024-01-30T05:53:27;7.18;;;5.05;;
42104;SDS011;70664;51.472;5.712;2024-01-30T05:55:53;7.43;;;4.75;;
42104;SDS011;70664;51.472;5.712;2024-01-30T05:58:19;9.70;;;4.97;;
42104;SDS011;70664;51.472;5.712;2024-01-30T06:00:45;9.00;;;5.15;;
42104;SDS011;70664;51.472;5.712;2024-01-30T06:03:10;7.97;;;4.95;;
42104;SDS011;70664;51.472;5.712;2024-01-30T06:05:36;8.18;;;5.60;;
42104;SDS011;70664;51.472;5.712;2024-01-30T06:08:02;9.20;;;5.35;;
42104;SDS011;70664;51.472;5.712;2024-01-30T06:10:28;7.93;;;4.90;;
42104;SDS011;70664;51.472;5.712;2024-01-30T06:12:54;9.25;;;4.95;;
42104;SDS011;70664;51.472;5.712;2024-01-30T06:15:19;7.28;;;4.95;;
42104;SDS011;70664;51.472;5.712;2024-01-30T06:17:45;8.70;;;5.13;;
42104;SDS011;70664;51.472;5.712;2024-01-30T06:20:11;7.93;;;5.28;;
42104;SDS011;70664;51.472;5.712;2024-01-30T06:22:37;8.35;;;5.10;;
42104;SDS011;70664;51.472;5.712;2024-01-30T06:25:03;8.80;;;5.10;;
42104;SDS011;70664;51.472;5.712;2024-01-30T06:27:29;6.63;;;4.20;;
42104;SDS011;70664;51.472;5.712;2024-01-30T06:29:55;8.52;;;4.93;;
42104;SDS011;70664;51.472;5.712;2024-01-30T06:32:21;7.32;;;4.72;;
42104;SDS011;70664;51.472;5.712;2024-01-30T06:34:46;7.70;;;4.90;;
42104;SDS011;70664;51.472;5.712;2024-01-30T06:37:12;7.22;;;4.88;;
42104;SDS011;70664;51.472;5.712;2024-01-30T06:39:38;6.97;;;4.38;;
42104;SDS011;70664;51.472;5.712;2024-01-30T06:42:04;7.45;;;4.28;;
42104;SDS011;70664;51.472;5.712;2024-01-30T06:44:30;7.00;;;4.20;;
42104;SDS011;70664;51.472;5.712;2024-01-30T06:46:55;8.10;;;5.00;;
42104;SDS011;70664;51.472;5.712;2024-01-30T06:49:21;6.97;;;4.30;;
42104;SDS011;70664;51.472;5.712;2024-01-30T06:51:47;7.53;;;4.53;;
42104;SDS011;70664;51.472;5.712;2024-01-30T06:54:13;7.22;;;4.53;;
42104;SDS011;70664;51.472;5.712;2024-01-30T06:56:39;7.28;;;4.90;;
42104;SDS011;70664;51.472;5.712;2024-01-30T06:59:04;6.72;;;4.18;;
42104;SDS011;70664;51.472;5.712;2024-01-30T07:01:30;6.32;;;4.22;;
42104;SDS011;70664;51.472;5.712;2024-01-30T07:03:57;6.38;;;4.32;;
42104;SDS011;70664;51.472;5.712;2024-01-30T07:06:23;8.50;;;4.72;;
42104;SDS011;70664;51.472;5.712;2024-01-30T07:08:49;8.02;;;4.55;;
42104;SDS011;70664;51.472;5.712;2024-01-30T07:11:19;6.90;;;4.35;;
42104;SDS011;70664;51.472;5.712;2024-01-30T07:13:49;6.65;;;4.40;;
42104;SDS011;70664;51.472;5.712;2024-01-30T07:16:16;8.10;;;4.68;;
42104;SDS011;70664;51.472;5.712;2024-01-30T07:18:42;6.35;;;4.53;;
42104;SDS011;70664;51.472;5.712;2024-01-30T07:21:09;5.50;;;4.10;;
42104;SDS011;70664;51.472;5.712;2024-01-30T07:23:35;7.22;;;4.50;;
42104;SDS011;70664;51.472;5.712;2024-01-30T07:26:03;6.90;;;4.28;;
42104;SDS011;70664;51.472;5.712;2024-01-30T07:28:31;7.53;;;4.53;;
42104;SDS011;70664;51.472;5.712;2024-01-30T07:30:58;8.45;;;4.70;;
42104;SDS011;70664;51.472;5.712;2024-01-30T07:33:24;8.20;;;4.47;;
42104;SDS011;70664;51.472;5.712;2024-01-30T07:35:49;8.45;;;4.50;;
42104;SDS011;70664;51.472;5.712;2024-01-30T07:38:17;6.95;;;4.20;;
42104;SDS011;70664;51.472;5.712;2024-01-30T07:40:44;5.63;;;4.10;;
42104;SDS011;70664;51.472;5.712;2024-01-30T07:43:10;5.88;;;3.90;;
42104;SDS011;70664;51.472;5.712;2024-01-30T07:45:36;7.03;;;4.43;;
42104;SDS011;70664;51.472;5.712;2024-01-30T07:48:03;7.90;;;4.60;;
42104;SDS011;70664;51.472;5.712;2024-01-30T07:50:30;5.85;;;4.28;;
42104;SDS011;70664;51.472;5.712;2024-01-30T07:52:59;7.70;;;4.68;;
42104;SDS011;70664;51.472;5.712;2024-01-30T07:55:25;6.53;;;4.28;;
42104;SDS011;70664;51.472;5.712;2024-01-30T07:57:56;7.63;;;4.50;;
42104;SDS011;70664;51.472;5.712;2024-01-30T08:00:22;7.45;;;4.50;;
42104;SDS011;70664;51.472;5.712;2024-01-30T08:02:48;6.80;;;4.72;;
42104;SDS011;70664;51.472;5.712;2024-01-30T08:05:13;5.40;;;3.75;;
42104;SDS011;70664;51.472;5.712;2024-01-30T08:07:40;4.97;;;3.83;;
42104;SDS011;70664;51.472;5.712;2024-01-30T08:10:11;8.02;;;4.38;;
42104;SDS011;70664;51.472;5.712;2024-01-30T08:12:38;6.32;;;4.13;;
42104;SDS011;70664;51.472;5.712;2024-01-30T08:15:04;6.75;;;4.43;;
42104;SDS011;70664;51.472;5.712;2024-01-30T08:17:30;7.68;;;4.53;;
42104;SDS011;70664;51.472;5.712;2024-01-30T08:19:56;7.70;;;3.85;;
42104;SDS011;70664;51.472;5.712;2024-01-30T08:22:22;7.72;;;4.47;;
42104;SDS011;70664;51.472;5.712;2024-01-30T08:24:48;6.22;;;4.20;;
42104;SDS011;70664;51.472;5.712;2024-01-30T08:27:14;5.68;;;4.10;;
42104;SDS011;70664;51.472;5.712;2024-01-30T08:29:39;7.72;;;3.90;;
42104;SDS011;70664;51.472;5.712;2024-01-30T08:32:05;6.93;;;4.20;;
42104;SDS011;70664;51.472;5.712;2024-01-30T08:34:31;6.47;;;4.07;;
42104;SDS011;70664;51.472;5.712;2024-01-30T08:36:57;6.03;;;3.85;;
42104;SDS011;70664;51.472;5.712;2024-01-30T08:39:23;5.68;;;3.83;;
42104;SDS011;70664;51.472;5.712;2024-01-30T08:41:49;7.32;;;4.03;;
42104;SDS011;70664;51.472;5.712;2024-01-30T08:44:15;6.05;;;3.97;;
42104;SDS011;70664;51.472;5.712;2024-01-30T08:46:42;6.65;;;3.53;;
42104;SDS011;70664;51.472;5.712;2024-01-30T08:49:11;5.88;;;3.63;;
42104;SDS011;70664;51.472;5.712;2024-01-30T08:51:38;6.32;;;3.70;;
42104;SDS011;70664;51.472;5.712;2024-01-30T08:54:05;7.22;;;3.92;;
42104;SDS011;70664;51.472;5.712;2024-01-30T08:56:30;6.80;;;3.78;;
42104;SDS011;70664;51.472;5.712;2024-01-30T08:58:56;5.18;;;3.90;;
42104;SDS011;70664;51.472;5.712;2024-01-30T09:01:22;5.70;;;4.10;;
42104;SDS011;70664;51.472;5.712;2024-01-30T09:03:48;7.82;;;4.13;;
42104;SDS011;70664;51.472;5.712;2024-01-30T09:06:13;5.85;;;4.20;;
42104;SDS011;70664;51.472;5.712;2024-01-30T09:08:39;5.70;;;3.70;;
42104;SDS011;70664;51.472;5.712;2024-01-30T09:11:12;6.65;;;4.20;;
42104;SDS011;70664;51.472;5.712;2024-01-30T09:13:39;6.97;;;3.88;;
42104;SDS011;70664;51.472;5.712;2024-01-30T09:16:05;5.85;;;4.00;;
42104;SDS011;70664;51.472;5.712;2024-01-30T09:18:31;7.55;;;3.88;;
42104;SDS011;70664;51.472;5.712;2024-01-30T09:20:57;7.53;;;4.00;;
42104;SDS011;70664;51.472;5.712;2024-01-30T09:23:23;7.95;;;3.95;;
42104;SDS011;70664;51.472;5.712;2024-01-30T09:25:49;8.15;;;3.65;;
42104;SDS011;70664;51.472;5.712;2024-01-30T09:28:16;6.22;;;4.07;;
42104;SDS011;70664;51.472;5.712;2024-01-30T09:30:42;5.35;;;4.00;;
42104;SDS011;70664;51.472;5.712;2024-01-30T09:33:08;6.35;;;4.00;;
42104;SDS011;70664;51.472;5.712;2024-01-30T09:35:34;6.82;;;3.83;;
42104;SDS011;70664;51.472;5.712;2024-01-30T09:38:01;6.45;;;3.95;;
42104;SDS011;70664;51.472;5.712;2024-01-30T09:40:27;7.03;;;3.63;;
42104;SDS011;70664;51.472;5.712;2024-01-30T09:42:54;5.75;;;3.65;;
42104;SDS011;70664;51.472;5.712;2024-01-30T09:45:20;6.60;;;3.88;;
42104;SDS011;70664;51.472;5.712;2024-01-30T09:47:50;7.43;;;3.65;;
42104;SDS011;70664;51.472;5.712;2024-01-30T09:50:17;10.75;;;3.92;;
42104;SDS011;70664;51.472;5.712;2024-01-30T09:52:44;5.45;;;3.80;;
42104;SDS011;70664;51.472;5.712;2024-01-30T09:55:10;6.00;;;3.63;;
42104;SDS011;70664;51.472;5.712;2024-01-30T09:57:36;8.48;;;3.97;;
42104;SDS011;70664;51.472;5.712;2024-01-30T10:00:03;6.28;;;3.72;;
42104;SDS011;70664;51.472;5.712;2024-01-30T10:02:38;7.35;;;4.00;;
42104;SDS011;70664;51.472;5.712;2024-01-30T10:05:05;6.18;;;3.80;;
42104;SDS011;70664;51.472;5.712;2024-01-30T10:07:31;5.55;;;3.65;;
42104;SDS011;70664;51.472;5.712;2024-01-30T10:09:57;5.80;;;3.55;;
42104;SDS011;70664;51.472;5.712;2024-01-30T10:12:23;6.07;;;3.67;;
42104;SDS011;70664;51.472;5.712;2024-01-30T10:14:51;5.43;;;3.65;;
42104;SDS011;70664;51.472;5.712;2024-01-30T10:17:17;6.32;;;3.70;;
42104;SDS011;70664;51.472;5.712;2024-01-30T10:19:43;4.82;;;3.53;;
42104;SDS011;70664;51.472;5.712;2024-01-30T10:22:09;8.30;;;3.58;;
42104;SDS011;70664;51.472;5.712;2024-01-30T10:24:35;5.55;;;3.47;;
42104;SDS011;70664;51.472;5.712;2024-01-30T10:27:02;5.40;;;3.50;;
42104;SDS011;70664;51.472;5.712;2024-01-30T10:29:28;6.25;;;3.85;;
42104;SDS011;70664;51.472;5.712;2024-01-30T10:32:04;4.97;;;3.30;;
42104;SDS011;70664;51.472;5.712;2024-01-30T10:34:31;8.23;;;3.85;;
42104;SDS011;70664;51.472;5.712;2024-01-30T10:37:30;4.80;;;3.33;;
42104;SDS011;70664;51.472;5.712;2024-01-30T10:39:50;4.95;;;3.58;;
42104;SDS011;70664;51.472;5.712;2024-01-30T10:42:21;6.60;;;3.75;;
42104;SDS011;70664;51.472;5.712;2024-01-30T10:47:33;5.70;;;3.40;;
42104;SDS011;70664;51.472;5.712;2024-01-30T10:50:04;4.35;;;3.38;;
42104;SDS011;70664;51.472;5.712;2024-01-30T10:52:31;6.18;;;3.63;;
42104;SDS011;70664;51.472;5.712;2024-01-30T10:54:57;7.22;;;4.07;;
42104;SDS011;70664;51.472;5.712;2024-01-30T10:57:25;6.00;;;3.67;;
42104;SDS011;70664;51.472;5.712;2024-01-30T10:59:55;5.13;;;3.30;;
42104;SDS011;70664;51.472;5.712;2024-01-30T11:02:23;6.55;;;4.28;;
42104;SDS011;70664;51.472;5.712;2024-01-30T11:04:55;4.05;;;3.22;;
42104;SDS011;70664;51.472;5.712;2024-01-30T11:07:26;5.90;;;3.57;;
42104;SDS011;70664;51.472;5.712;2024-01-30T11:09:59;5.18;;;3.70;;
42104;SDS011;70664;51.472;5.712;2024-01-30T11:15:04;5.82;;;3.40;;
42104;SDS011;70664;51.472;5.712;2024-01-30T11:17:41;7.05;;;3.45;;
42104;SDS011;70664;51.472;5.712;2024-01-30T11:22:56;6.63;;;3.45;;
42104;SDS011;70664;51.472;5.712;2024-01-30T11:25:23;5.03;;;3.42;;
42104;SDS011;70664;51.472;5.712;2024-01-30T11:27:56;9.57;;;4.03;;
42104;SDS011;70664;51.472;5.712;2024-01-30T11:30:25;5.25;;;3.58;;
42104;SDS011;70664;51.472;5.712;2024-01-30T11:33:06;5.53;;;3.55;;
42104;SDS011;70664;51.472;5.712;2024-01-30T11:38:02;5.07;;;3.35;;
42104;SDS011;70664;51.472;5.712;2024-01-30T11:40:29;9.65;;;3.78;;
42104;SDS011;70664;51.472;5.712;2024-01-30T11:42:56;6.75;;;3.75;;
42104;SDS011;70664;51.472;5.712;2024-01-30T11:45:26;7.57;;;3.60;;
42104;SDS011;70664;51.472;5.712;2024-01-30T11:47:52;6.43;;;3.47;;
42104;SDS011;70664;51.472;5.712;2024-01-30T11:50:19;8.38;;;3.92;;
42104;SDS011;70664;51.472;5.712;2024-01-30T11:52:45;10.35;;;3.70;;
42104;SDS011;70664;51.472;5.712;2024-01-30T11:55:12;6.50;;;3.55;;
42104;SDS011;70664;51.472;5.712;2024-01-30T11:57:39;8.15;;;3.85;;
42104;SDS011;70664;51.472;5.712;2024-01-30T12:00:05;6.70;;;3.78;;
42104;SDS011;70664;51.472;5.712;2024-01-30T12:02:39;5.82;;;3.63;;
42104;SDS011;70664;51.472;5.712;2024-01-30T12:05:05;5.97;;;3.63;;
42104;SDS011;70664;51.472;5.712;2024-01-30T12:07:32;5.57;;;3.65;;
42104;SDS011;70664;51.472;5.712;2024-01-30T12:09:58;7.28;;;3.63;;
42104;SDS011;70664;51.472;5.712;2024-01-30T12:12:25;9.95;;;4.20;;
42104;SDS011;70664;51.472;5.712;2024-01-30T12:14:52;7.80;;;4.10;;
42104;SDS011;70664;51.472;5.712;2024-01-30T12:17:27;8.80;;;4.40;;
42104;SDS011;70664;51.472;5.712;2024-01-30T12:22:39;7.53;;;5.05;;
42104;SDS011;70664;51.472;5.712;2024-01-30T12:25:10;8.00;;;5.03;;
42104;SDS011;70664;51.472;5.712;2024-01-30T12:27:44;8.77;;;5.47;;
42104;SDS011;70664;51.472;5.712;2024-01-30T12:30:15;6.65;;;5.20;;
42104;SDS011;70664;51.472;5.712;2024-01-30T12:32:42;10.38;;;5.57;;
42104;SDS011;70664;51.472;5.712;2024-01-30T12:35:13;10.43;;;5.43;;
42104;SDS011;70664;51.472;5.712;2024-01-30T12:37:41;8.27;;;5.00;;
42104;SDS011;70664;51.472;5.712;2024-01-30T12:40:09;9.20;;;5.18;;
42104;SDS011;70664;51.472;5.712;2024-01-30T12:42:38;7.13;;;4.57;;
42104;SDS011;70664;51.472;5.712;2024-01-30T12:45:04;9.00;;;4.70;;
42104;SDS011;70664;51.472;5.712;2024-01-30T12:47:31;6.82;;;4.35;;
42104;SDS011;70664;51.472;5.712;2024-01-30T12:49:57;8.13;;;4.70;;
42104;SDS011;70664;51.472;5.712;2024-01-30T12:52:23;8.85;;;4.80;;
42104;SDS011;70664;51.472;5.712;2024-01-30T12:54:50;6.38;;;4.30;;
42104;SDS011;70664;51.472;5.712;2024-01-30T12:57:16;7.43;;;4.72;;
42104;SDS011;70664;51.472;5.712;2024-01-30T12:59:43;6.70;;;4.68;;
42104;SDS011;70664;51.472;5.712;2024-01-30T13:02:10;7.32;;;4.38;;
42104;SDS011;70664;51.472;5.712;2024-01-30T13:04:40;6.80;;;4.25;;
42104;SDS011;70664;51.472;5.712;2024-01-30T13:07:07;7.25;;;3.85;;
42104;SDS011;70664;51.472;5.712;2024-01-30T13:09:32;12.85;;;4.22;;
42104;SDS011;70664;51.472;5.712;2024-01-30T13:11:58;8.75;;;4.00;;
42104;SDS011;70664;51.472;5.712;2024-01-30T13:14:25;6.20;;;4.15;;
42104;SDS011;70664;51.472;5.712;2024-01-30T13:16:51;7.90;;;4.00;;
42104;SDS011;70664;51.472;5.712;2024-01-30T13:19:17;7.00;;;3.55;;
42104;SDS011;70664;51.472;5.712;2024-01-30T13:21:43;6.47;;;3.50;;
42104;SDS011;70664;51.472;5.712;2024-01-30T13:24:09;6.40;;;4.10;;
42104;SDS011;70664;51.472;5.712;2024-01-30T13:26:35;6.60;;;3.83;;
42104;SDS011;70664;51.472;5.712;2024-01-30T13:29:01;6.63;;;3.50;;
42104;SDS011;70664;51.472;5.712;2024-01-30T13:31:28;9.32;;;3.63;;
42104;SDS011;70664;51.472;5.712;2024-01-30T13:33:54;5.13;;;3.70;;
42104;SDS011;70664;51.472;5.712;2024-01-30T13:36:20;4.50;;;3.50;;
42104;SDS011;70664;51.472;5.712;2024-01-30T13:38:47;5.45;;;2.95;;
42104;SDS011;70664;51.472;5.712;2024-01-30T13:41:13;6.30;;;3.30;;
42104;SDS011;70664;51.472;5.712;2024-01-30T13:43:39;6.05;;;3.53;;
42104;SDS011;70664;51.472;5.712;2024-01-30T13:46:04;5.22;;;3.10;;
42104;SDS011;70664;51.472;5.712;2024-01-30T13:48:31;5.75;;;3.38;;
42104;SDS011;70664;51.472;5.712;2024-01-30T13:50:57;5.43;;;3.58;;
42104;SDS011;70664;51.472;5.712;2024-01-30T13:53:23;10.23;;;3.20;;
42104;SDS011;70664;51.472;5.712;2024-01-30T13:55:48;5.85;;;3.40;;
42104;SDS011;70664;51.472;5.712;2024-01-30T13:58:14;5.53;;;3.50;;
42104;SDS011;70664;51.472;5.712;2024-01-30T14:00:40;4.90;;;3.50;;
42104;SDS011;70664;51.472;5.712;2024-01-30T14:03:06;5.57;;;3.08;;
42104;SDS011;70664;51.472;5.712;2024-01-30T14:05:31;4.63;;;3.08;;
42104;SDS011;70664;51.472;5.712;2024-01-30T14:07:57;4.78;;;2.95;;
42104;SDS011;70664;51.472;5.712;2024-01-30T14:10:24;4.55;;;3.22;;
42104;SDS011;70664;51.472;5.712;2024-01-30T14:12:51;7.88;;;3.25;;
42104;SDS011;70664;51.472;5.712;2024-01-30T14:15:16;4.40;;;2.90;;
42104;SDS011;70664;51.472;5.712;2024-01-30T14:17:43;4.60;;;2.55;;
42104;SDS011;70664;51.472;5.712;2024-01-30T14:20:10;7.18;;;3.10;;
42104;SDS011;70664;51.472;5.712;2024-01-30T14:22:36;4.95;;;2.80;;
42104;SDS011;70664;51.472;5.712;2024-01-30T14:25:02;5.57;;;2.60;;
42104;SDS011;70664;51.472;5.712;2024-01-30T14:27:29;4.20;;;2.78;;
42104;SDS011;70664;51.472;5.712;2024-01-30T14:29:56;3.83;;;2.60;;
42104;SDS011;70664;51.472;5.712;2024-01-30T14:32:22;5.72;;;2.90;;
42104;SDS011;70664;51.472;5.712;2024-01-30T14:34:50;6.57;;;2.72;;
42104;SDS011;70664;51.472;5.712;2024-01-30T14:37:17;3.78;;;2.80;;
42104;SDS011;70664;51.472;5.712;2024-01-30T14:39:44;3.70;;;2.65;;
42104;SDS011;70664;51.472;5.712;2024-01-30T14:42:10;3.63;;;2.58;;
42104;SDS011;70664;51.472;5.712;2024-01-30T14:44:35;4.93;;;2.83;;
42104;SDS011;70664;51.472;5.712;2024-01-30T14:47:01;4.65;;;2.30;;
42104;SDS011;70664;51.472;5.712;2024-01-30T14:49:27;3.83;;;2.70;;
42104;SDS011;70664;51.472;5.712;2024-01-30T14:51:53;5.32;;;2.90;;
42104;SDS011;70664;51.472;5.712;2024-01-30T14:54:19;6.07;;;2.78;;